Time;durP1;ratioP1;P1;durP2;ratioP2;P2;SDS_P1;SDS_P2;PMS_P1;PMS_P2;Temp;Humidity;BMP_temperature;BMP_pressure;BME280_temperature;BME280_humidity;BME280_pressure;Samples;Min_cycle;Max_cycle;Signal;HPM_P1;HPM_P2
2023/09/02 00:00:34;;;;;;;3.17;1.20;;;;;;;;;;5000708;28;20398;-85
2023/09/02 00:03:00;;;;;;;1.80;1.10;;;;;;;;;;5003549;28;20408;-85
2023/09/02 00:05:26;;;;;;;1.67;1.27;;;;;;;;;;5006989;28;20427;-85
2023/09/02 00:07:53;;;;;;;2.45;1.35;;;;;;;;;;4998522;28;20434;-85
2023/09/02 00:10:19;;;;;;;1.70;1.30;;;;;;;;;;5007691;28;20408;-85
2023/09/02 00:12:45;;;;;;;2.97;1.35;;;;;;;;;;5006362;28;20492;-85
2023/09/02 00:15:11;;;;;;;1.25;1.10;;;;;;;;;;5009423;28;20463;-85
2023/09/02 00:17:37;;;;;;;1.98;1.27;;;;;;;;;;5008580;28;20402;-85
2023/09/02 00:20:05;;;;;;;2.10;1.23;;;;;;;;;;5005861;28;20882;-85
2023/09/02 00:22:32;;;;;;;1.97;1.17;;;;;;;;;;5005638;28;20404;-85
2023/09/02 00:24:58;;;;;;;2.55;1.50;;;;;;;;;;5013354;28;20401;-85
2023/09/02 00:27:24;;;;;;;1.60;1.20;;;;;;;;;;5005846;28;20453;-85
2023/09/02 00:29:50;;;;;;;2.03;1.30;;;;;;;;;;5002970;28;20398;-85
2023/09/02 00:32:16;;;;;;;1.42;1.30;;;;;;;;;;5003673;28;20415;-84
2023/09/02 00:34:42;;;;;;;2.15;1.50;;;;;;;;;;5001651;28;20406;-85
2023/09/02 00:37:08;;;;;;;2.53;1.20;;;;;;;;;;5010264;28;20405;-85
2023/09/02 00:39:34;;;;;;;4.10;1.40;;;;;;;;;;5000877;28;20457;-85
2023/09/02 00:42:01;;;;;;;1.43;1.20;;;;;;;;;;5002744;28;20452;-85
2023/09/02 00:44:27;;;;;;;2.63;1.20;;;;;;;;;;5002744;28;20410;-85
2023/09/02 00:46:54;;;;;;;3.05;1.23;;;;;;;;;;5007055;28;20418;-85
2023/09/02 00:49:21;;;;;;;2.80;1.60;;;;;;;;;;5007243;28;20486;-84
2023/09/02 00:51:47;;;;;;;2.23;1.50;;;;;;;;;;5010545;28;20894;-85
2023/09/02 00:54:13;;;;;;;1.60;1.40;;;;;;;;;;5012448;28;20483;-84
2023/09/02 00:56:40;;;;;;;2.42;1.13;;;;;;;;;;5011584;28;20388;-85
2023/09/02 00:59:06;;;;;;;2.05;1.38;;;;;;;;;;5003120;28;20397;-85
2023/09/02 01:01:33;;;;;;;1.30;1.20;;;;;;;;;;5018506;28;20400;-85
2023/09/02 01:04:00;;;;;;;2.10;1.20;;;;;;;;;;5020381;28;20389;-86
2023/09/02 01:06:26;;;;;;;2.03;1.30;;;;;;;;;;5021713;28;20414;-85
2023/09/02 01:08:52;;;;;;;1.33;1.20;;;;;;;;;;5022195;28;20427;-86
2023/09/02 01:11:18;;;;;;;1.55;1.27;;;;;;;;;;5017546;28;20388;-85
2023/09/02 01:13:44;;;;;;;2.47;1.30;;;;;;;;;;5014427;28;20759;-85
2023/09/02 01:16:10;;;;;;;1.95;1.40;;;;;;;;;;5015908;28;20388;-85
2023/09/02 01:18:36;;;;;;;2.35;1.50;;;;;;;;;;5014338;28;20838;-85
2023/09/02 01:21:15;;;;;;;2.10;1.30;;;;;;;;;;5014776;28;20405;-85
2023/09/02 01:23:41;;;;;;;1.30;1.20;;;;;;;;;;5014782;28;20412;-85
2023/09/02 01:26:16;;;;;;;1.30;1.20;;;;;;;;;;5014290;28;20393;-85
2023/09/02 01:28:42;;;;;;;2.28;1.27;;;;;;;;;;5014155;28;20392;-85
2023/09/02 01:31:11;;;;;;;1.55;1.42;;;;;;;;;;5014206;28;20431;-85
2023/09/02 01:33:37;;;;;;;1.75;1.20;;;;;;;;;;5015372;28;20921;-85
2023/09/02 01:36:04;;;;;;;1.77;1.20;;;;;;;;;;5014397;28;20475;-85
2023/09/02 01:38:31;;;;;;;1.70;1.20;;;;;;;;;;5014322;28;20488;-85
2023/09/02 01:40:59;;;;;;;2.13;1.20;;;;;;;;;;5014661;28;20795;-85
2023/09/02 01:43:25;;;;;;;1.65;1.10;;;;;;;;;;5013904;28;20415;-85
2023/09/02 01:45:51;;;;;;;1.88;1.30;;;;;;;;;;5013707;28;20400;-85
2023/09/02 01:48:18;;;;;;;1.80;1.13;;;;;;;;;;5005859;28;20424;-85
2023/09/02 01:50:45;;;;;;;2.20;1.40;;;;;;;;;;5012982;28;20484;-85
2023/09/02 01:53:11;;;;;;;1.17;1.00;;;;;;;;;;5013056;28;20381;-84
2023/09/02 01:55:37;;;;;;;1.40;1.17;;;;;;;;;;5013090;28;20968;-85
2023/09/02 01:58:03;;;;;;;1.52;1.30;;;;;;;;;;5011814;28;20446;-85
2023/09/02 02:00:29;;;;;;;2.22;1.10;;;;;;;;;;5013119;28;20396;-85
2023/09/02 02:02:55;;;;;;;1.77;1.20;;;;;;;;;;5012565;28;20380;-85
2023/09/02 02:05:27;;;;;;;1.83;1.20;;;;;;;;;;5012532;28;20377;-85
2023/09/02 02:07:58;;;;;;;1.65;1.20;;;;;;;;;;5011014;28;20792;-85
2023/09/02 02:10:25;;;;;;;1.63;1.15;;;;;;;;;;5012606;28;20396;-85
2023/09/02 02:12:51;;;;;;;3.37;1.33;;;;;;;;;;5012688;28;20512;-85
2023/09/02 02:15:17;;;;;;;1.85;1.30;;;;;;;;;;5012847;28;20396;-85
2023/09/02 02:17:43;;;;;;;2.53;1.17;;;;;;;;;;5012384;28;20408;-85
2023/09/02 02:20:09;;;;;;;2.47;1.15;;;;;;;;;;5012642;28;20802;-85
2023/09/02 02:22:36;;;;;;;1.65;1.25;;;;;;;;;;5015098;28;20477;-85
2023/09/02 02:25:02;;;;;;;1.40;1.15;;;;;;;;;;5013126;28;20435;-85
2023/09/02 02:27:28;;;;;;;1.30;1.10;;;;;;;;;;5013043;28;20413;-85
2023/09/02 02:29:54;;;;;;;1.55;1.10;;;;;;;;;;5015326;28;20750;-85
2023/09/02 02:32:21;;;;;;;2.17;1.30;;;;;;;;;;5005879;28;21354;-86
2023/09/02 02:34:47;;;;;;;1.40;1.30;;;;;;;;;;5006122;28;20383;-85
2023/09/02 02:37:13;;;;;;;1.33;1.10;;;;;;;;;;5004591;28;20879;-85
2023/09/02 02:39:39;;;;;;;1.60;1.17;;;;;;;;;;5002310;28;20468;-85
2023/09/02 02:42:05;;;;;;;1.13;1.02;;;;;;;;;;4999200;28;20402;-85
2023/09/02 02:44:33;;;;;;;1.63;1.08;;;;;;;;;;5011190;28;20381;-85
2023/09/02 02:46:59;;;;;;;2.70;1.30;;;;;;;;;;5001536;28;20414;-85
2023/09/02 02:49:25;;;;;;;1.73;1.20;;;;;;;;;;5013160;28;20905;-85
2023/09/02 02:51:51;;;;;;;1.33;1.20;;;;;;;;;;5019032;28;20446;-85
2023/09/02 02:54:17;;;;;;;2.45;1.30;;;;;;;;;;5011250;28;20389;-85
2023/09/02 02:56:43;;;;;;;1.23;1.13;;;;;;;;;;5016810;28;20393;-85
2023/09/02 02:59:09;;;;;;;1.65;1.20;;;;;;;;;;5013328;28;20395;-85
2023/09/02 03:01:35;;;;;;;2.33;1.30;;;;;;;;;;5012492;28;20921;-85
2023/09/02 03:04:01;;;;;;;1.83;1.20;;;;;;;;;;5012986;28;20396;-85
2023/09/02 03:06:28;;;;;;;1.90;1.20;;;;;;;;;;5012751;28;20803;-85
2023/09/02 03:08:54;;;;;;;2.95;1.13;;;;;;;;;;5013035;28;20763;-85
2023/09/02 03:11:20;;;;;;;1.40;1.20;;;;;;;;;;5011037;28;20439;-85
2023/09/02 03:13:46;;;;;;;1.50;1.30;;;;;;;;;;5012934;28;20424;-85
2023/09/02 03:16:11;;;;;;;1.70;1.20;;;;;;;;;;5012566;28;20392;-85
2023/09/02 03:18:37;;;;;;;1.40;1.10;;;;;;;;;;5012435;28;20835;-85
2023/09/02 03:21:04;;;;;;;1.27;1.10;;;;;;;;;;5012585;28;20400;-85
2023/09/02 03:23:30;;;;;;;2.13;1.20;;;;;;;;;;5012418;28;20434;-85
2023/09/02 03:25:56;;;;;;;1.20;1.10;;;;;;;;;;5011726;28;20420;-85
2023/09/02 03:28:22;;;;;;;1.20;1.10;;;;;;;;;;5012463;28;20436;-85
2023/09/02 03:30:49;;;;;;;1.30;1.20;;;;;;;;;;5013278;28;20920;-85
2023/09/02 03:33:15;;;;;;;2.17;1.30;;;;;;;;;;5012244;28;20381;-85
2023/09/02 03:35:41;;;;;;;2.13;1.25;;;;;;;;;;5012366;28;20388;-85
2023/09/02 03:38:07;;;;;;;2.38;1.30;;;;;;;;;;5012261;28;20381;-85
2023/09/02 03:40:33;;;;;;;1.45;1.23;;;;;;;;;;5012170;28;20384;-85
2023/09/02 03:43:00;;;;;;;1.42;1.30;;;;;;;;;;5012326;28;20381;-85
2023/09/02 03:45:26;;;;;;;1.30;1.20;;;;;;;;;;5012098;28;20393;-85
2023/09/02 03:47:52;;;;;;;1.40;1.20;;;;;;;;;;5003614;28;20482;-85
2023/09/02 03:50:24;;;;;;;2.20;1.30;;;;;;;;;;5011766;28;20392;-85
2023/09/02 03:52:50;;;;;;;2.45;1.50;;;;;;;;;;5012437;28;20442;-85
2023/09/02 03:55:16;;;;;;;1.80;1.23;;;;;;;;;;5014333;28;20388;-85
2023/09/02 03:57:42;;;;;;;1.35;1.10;;;;;;;;;;5015975;28;20403;-85
2023/09/02 04:00:08;;;;;;;1.50;1.30;;;;;;;;;;5022734;28;20472;-85
2023/09/02 04:02:34;;;;;;;1.50;1.10;;;;;;;;;;5022432;28;20388;-85
2023/09/02 04:05:03;;;;;;;1.55;1.38;;;;;;;;;;5011511;28;20383;-85
2023/09/02 04:07:29;;;;;;;1.80;1.08;;;;;;;;;;5007762;28;20503;-84
2023/09/02 04:09:56;;;;;;;2.50;1.40;;;;;;;;;;5015484;28;20915;-86
2023/09/02 04:12:22;;;;;;;2.60;1.10;;;;;;;;;;5015246;28;20384;-86
2023/09/02 04:14:48;;;;;;;2.42;1.10;;;;;;;;;;5015013;28;20860;-86
2023/09/02 04:17:16;;;;;;;1.95;1.30;;;;;;;;;;5015085;28;20388;-86
2023/09/02 04:19:42;;;;;;;2.03;1.15;;;;;;;;;;5014734;28;20447;-86
2023/09/02 04:22:08;;;;;;;1.38;1.23;;;;;;;;;;5014804;28;20742;-86
2023/09/02 04:24:34;;;;;;;1.90;1.30;;;;;;;;;;5022219;28;20414;-86
2023/09/02 04:27:01;;;;;;;1.47;1.20;;;;;;;;;;5018422;28;20490;-86
2023/09/02 04:29:27;;;;;;;3.40;1.48;;;;;;;;;;5015146;28;20400;-86
2023/09/02 04:31:53;;;;;;;1.50;1.25;;;;;;;;;;5014388;28;20778;-86
2023/09/02 04:34:19;;;;;;;1.30;1.10;;;;;;;;;;5014608;28;20802;-86
2023/09/02 04:36:45;;;;;;;2.17;1.27;;;;;;;;;;5015301;28;20379;-86
2023/09/02 04:39:11;;;;;;;1.42;1.17;;;;;;;;;;5019269;28;21169;-86
2023/09/02 04:41:37;;;;;;;2.35;1.30;;;;;;;;;;5018278;28;20400;-86
2023/09/02 04:44:03;;;;;;;2.10;1.40;;;;;;;;;;5014150;28;20451;-87
2023/09/02 04:46:29;;;;;;;2.10;1.40;;;;;;;;;;5009153;28;20417;-85
2023/09/02 04:48:55;;;;;;;2.13;1.45;;;;;;;;;;5013151;28;20863;-87
2023/09/02 04:51:21;;;;;;;2.80;1.40;;;;;;;;;;5015262;28;20445;-86
2023/09/02 04:53:47;;;;;;;2.88;1.20;;;;;;;;;;5027873;28;20391;-87
2023/09/02 04:56:14;;;;;;;2.00;1.23;;;;;;;;;;5014685;28;20490;-86
2023/09/02 04:58:40;;;;;;;1.35;1.13;;;;;;;;;;5017213;28;20397;-85
2023/09/02 05:01:12;;;;;;;3.35;1.40;;;;;;;;;;5015136;28;20383;-87
2023/09/02 05:03:38;;;;;;;2.80;1.52;;;;;;;;;;5015363;28;20392;-86
2023/09/02 05:06:05;;;;;;;1.50;1.38;;;;;;;;;;5014056;28;20377;-87
2023/09/02 05:08:33;;;;;;;2.05;1.38;;;;;;;;;;5014715;28;20396;-87
2023/09/02 05:10:59;;;;;;;1.73;1.40;;;;;;;;;;5014976;28;20385;-85
2023/09/02 05:13:25;;;;;;;2.50;1.50;;;;;;;;;;5016642;28;20854;-87
2023/09/02 05:15:51;;;;;;;2.15;1.50;;;;;;;;;;5015948;28;20392;-86
2023/09/02 05:18:17;;;;;;;3.05;1.42;;;;;;;;;;5017611;28;20450;-85
2023/09/02 05:20:43;;;;;;;1.80;1.50;;;;;;;;;;5025238;28;20953;-85
2023/09/02 05:23:09;;;;;;;1.75;1.50;;;;;;;;;;5020842;28;20381;-86
2023/09/02 05:25:35;;;;;;;1.58;1.45;;;;;;;;;;5015138;28;20819;-87
2023/09/02 05:28:01;;;;;;;1.50;1.40;;;;;;;;;;5015146;28;20417;-86
2023/09/02 05:30:28;;;;;;;1.55;1.33;;;;;;;;;;5014920;28;20412;-87
2023/09/02 05:32:54;;;;;;;2.22;1.42;;;;;;;;;;5014798;28;20455;-87
2023/09/02 05:35:20;;;;;;;1.80;1.30;;;;;;;;;;5015064;28;20874;-86
2023/09/02 05:37:46;;;;;;;1.60;1.50;;;;;;;;;;5014271;28;20391;-87
2023/09/02 05:40:12;;;;;;;2.40;1.70;;;;;;;;;;5015353;28;20460;-86
2023/09/02 05:42:38;;;;;;;3.97;1.80;;;;;;;;;;5015246;28;20381;-86
2023/09/02 05:45:05;;;;;;;2.20;1.40;;;;;;;;;;5014247;28;20396;-87
2023/09/02 05:47:31;;;;;;;2.20;1.60;;;;;;;;;;5015848;28;20971;-87
2023/09/02 05:49:57;;;;;;;2.15;1.50;;;;;;;;;;5014381;28;20478;-86
2023/09/02 05:52:23;;;;;;;1.90;1.80;;;;;;;;;;5014339;28;20381;-86
2023/09/02 05:54:49;;;;;;;1.80;1.40;;;;;;;;;;5015046;28;20399;-87
2023/09/02 05:57:15;;;;;;;1.77;1.60;;;;;;;;;;5014181;28;20424;-86
2023/09/02 05:59:41;;;;;;;1.67;1.55;;;;;;;;;;5012838;28;20958;-87
2023/09/02 06:02:07;;;;;;;2.10;1.60;;;;;;;;;;5013667;28;20400;-86
2023/09/02 06:04:33;;;;;;;2.75;1.50;;;;;;;;;;5013804;28;20397;-86
2023/09/02 06:06:59;;;;;;;1.50;1.40;;;;;;;;;;5014646;28;20785;-86
2023/09/02 06:09:26;;;;;;;2.40;1.70;;;;;;;;;;5014598;28;20392;-87
2023/09/02 06:11:53;;;;;;;3.45;1.67;;;;;;;;;;5012713;28;20401;-87
2023/09/02 06:14:19;;;;;;;1.85;1.58;;;;;;;;;;5017495;28;20418;-86
2023/09/02 06:16:45;;;;;;;2.42;1.58;;;;;;;;;;5014441;28;20507;-87
2023/09/02 06:19:11;;;;;;;1.52;1.40;;;;;;;;;;5014023;28;20477;-86
2023/09/02 06:21:37;;;;;;;2.87;1.60;;;;;;;;;;5014455;28;20388;-86
2023/09/02 06:24:05;;;;;;;2.20;1.55;;;;;;;;;;5014298;28;20913;-86
2023/09/02 06:26:31;;;;;;;1.60;1.50;;;;;;;;;;5014308;28;20413;-86
2023/09/02 06:28:58;;;;;;;1.73;1.63;;;;;;;;;;5027944;28;20470;-87
2023/09/02 06:31:24;;;;;;;1.92;1.83;;;;;;;;;;5013836;28;20392;-86
2023/09/02 06:33:50;;;;;;;2.40;1.97;;;;;;;;;;5013045;28;20385;-86
2023/09/02 06:36:16;;;;;;;2.67;2.47;;;;;;;;;;5012110;28;20921;-86
2023/09/02 06:38:42;;;;;;;2.72;2.20;;;;;;;;;;5012248;28;20758;-86
2023/09/02 06:41:10;;;;;;;2.90;2.40;;;;;;;;;;5012231;28;20385;-86
2023/09/02 06:43:36;;;;;;;2.95;2.75;;;;;;;;;;5013649;28;20928;-86
2023/09/02 06:46:12;;;;;;;3.33;2.43;;;;;;;;;;5010075;28;20409;-86
2023/09/02 06:48:38;;;;;;;2.65;2.38;;;;;;;;;;5006898;28;20419;-86
2023/09/02 06:51:04;;;;;;;3.15;2.63;;;;;;;;;;5012174;28;20397;-86
2023/09/02 06:53:30;;;;;;;4.05;2.33;;;;;;;;;;5011749;28;20381;-86
2023/09/02 06:55:56;;;;;;;2.53;2.13;;;;;;;;;;5011433;28;20385;-86
2023/09/02 06:58:22;;;;;;;3.92;2.15;;;;;;;;;;5011879;28;20395;-86
2023/09/02 07:00:48;;;;;;;3.55;2.25;;;;;;;;;;5011634;28;20878;-86
2023/09/02 07:03:14;;;;;;;2.53;2.05;;;;;;;;;;5011844;28;20381;-86
2023/09/02 07:05:40;;;;;;;2.43;2.07;;;;;;;;;;5022618;28;20726;-86
2023/09/02 07:08:06;;;;;;;3.53;2.40;;;;;;;;;;5015390;28;20441;-87
2023/09/02 07:10:32;;;;;;;2.47;2.00;;;;;;;;;;5013256;28;20381;-87
2023/09/02 07:12:58;;;;;;;3.53;2.45;;;;;;;;;;5012231;28;20393;-87
2023/09/02 07:15:24;;;;;;;13.52;9.52;;;;;;;;;;5013204;28;20739;-87
2023/09/02 07:17:52;;;;;;;3.20;2.90;;;;;;;;;;5013184;28;20452;-87
2023/09/02 07:20:18;;;;;;;3.83;2.58;;;;;;;;;;5012774;28;20395;-87
2023/09/02 07:22:44;;;;;;;2.95;2.75;;;;;;;;;;5021241;28;20391;-87
2023/09/02 07:25:10;;;;;;;4.13;3.42;;;;;;;;;;5014845;28;20443;-86
2023/09/02 07:27:36;;;;;;;4.28;3.88;;;;;;;;;;5011730;28;20413;-86
2023/09/02 07:30:02;;;;;;;3.17;2.92;;;;;;;;;;5016049;28;20392;-86
2023/09/02 07:32:28;;;;;;;5.13;4.70;;;;;;;;;;5018086;28;20388;-82
2023/09/02 07:34:54;;;;;;;3.30;3.10;;;;;;;;;;5018198;28;20385;-84
2023/09/02 07:37:20;;;;;;;3.35;2.95;;;;;;;;;;5017826;28;20384;-85
2023/09/02 07:39:46;;;;;;;3.20;2.90;;;;;;;;;;5018027;28;20380;-84
2023/09/02 07:42:12;;;;;;;4.25;2.70;;;;;;;;;;5017882;28;20463;-84
2023/09/02 07:44:38;;;;;;;4.88;3.05;;;;;;;;;;5017990;28;20416;-85
2023/09/02 07:47:04;;;;;;;3.53;2.85;;;;;;;;;;5008348;28;20448;-85
2023/09/02 07:49:30;;;;;;;3.50;2.90;;;;;;;;;;5018481;28;20384;-85
2023/09/02 07:51:57;;;;;;;3.90;3.42;;;;;;;;;;5018652;28;20850;-84
2023/09/02 07:54:23;;;;;;;2.60;2.38;;;;;;;;;;5018605;28;20385;-85
2023/09/02 07:56:49;;;;;;;3.70;2.70;;;;;;;;;;5017622;28;20438;-84
2023/09/02 07:59:15;;;;;;;3.20;2.90;;;;;;;;;;5017406;28;20389;-85
2023/09/02 08:01:41;;;;;;;3.55;3.25;;;;;;;;;;5003895;28;20380;-85
2023/09/02 08:04:07;;;;;;;2.70;2.50;;;;;;;;;;5018220;28;20400;-86
2023/09/02 08:06:33;;;;;;;2.70;2.50;;;;;;;;;;5017713;28;20522;-85
2023/09/02 08:08:59;;;;;;;2.83;2.58;;;;;;;;;;5016417;28;20415;-85
2023/09/02 08:11:24;;;;;;;3.65;2.47;;;;;;;;;;5017400;28;20380;-85
2023/09/02 08:13:50;;;;;;;2.83;2.20;;;;;;;;;;5014835;28;20408;-86
2023/09/02 08:16:17;;;;;;;2.58;2.13;;;;;;;;;;5018405;28;20400;-85
2023/09/02 08:18:43;;;;;;;4.47;2.22;;;;;;;;;;5017102;28;20870;-85
2023/09/02 08:21:09;;;;;;;3.72;2.15;;;;;;;;;;5005468;28;20381;-85
2023/09/02 08:23:35;;;;;;;2.95;2.35;;;;;;;;;;5020053;28;20385;-85
2023/09/02 08:26:14;;;;;;;2.15;1.95;;;;;;;;;;5017792;28;20877;-85
2023/09/02 08:28:40;;;;;;;3.42;2.17;;;;;;;;;;5020335;28;20409;-85
2023/09/02 08:31:06;;;;;;;3.65;2.20;;;;;;;;;;5017530;28;20381;-85
2023/09/02 08:33:32;;;;;;;2.88;2.10;;;;;;;;;;5017501;28;20389;-85
2023/09/02 08:35:59;;;;;;;2.10;1.90;;;;;;;;;;5017330;28;20391;-85
2023/09/02 08:38:25;;;;;;;2.20;1.90;;;;;;;;;;5016864;28;20380;-85
2023/09/02 08:40:53;;;;;;;2.30;2.00;;;;;;;;;;5015307;28;20464;-85
2023/09/02 08:43:20;;;;;;;2.13;1.87;;;;;;;;;;5013813;28;20416;-85
2023/09/02 08:45:49;;;;;;;2.00;1.70;;;;;;;;;;5013707;28;20484;-85
2023/09/02 08:48:23;;;;;;;2.00;1.80;;;;;;;;;;5013045;28;20444;-85
2023/09/02 08:50:49;;;;;;;2.97;1.98;;;;;;;;;;5013895;28;20404;-85
2023/09/02 08:53:16;;;;;;;2.60;1.80;;;;;;;;;;5020604;28;20473;-84
2023/09/02 08:55:43;;;;;;;3.33;1.80;;;;;;;;;;5013954;28;20879;-86
2023/09/02 08:58:10;;;;;;;2.40;1.73;;;;;;;;;;5017510;28;20412;-85
2023/09/02 09:00:36;;;;;;;3.03;1.80;;;;;;;;;;5014529;28;20404;-84
2023/09/02 09:03:03;;;;;;;2.10;1.90;;;;;;;;;;5013557;28;20862;-83
2023/09/02 09:05:30;;;;;;;2.47;1.60;;;;;;;;;;5012140;28;20778;-85
2023/09/02 09:07:56;;;;;;;2.15;1.95;;;;;;;;;;5013665;28;20505;-85
2023/09/02 09:10:23;;;;;;;2.38;2.17;;;;;;;;;;5014066;28;20415;-85
2023/09/02 09:12:51;;;;;;;3.55;2.40;;;;;;;;;;5012105;28;20423;-84
2023/09/02 09:15:18;;;;;;;3.20;2.38;;;;;;;;;;5013584;28;20388;-85
2023/09/02 09:17:44;;;;;;;2.50;2.20;;;;;;;;;;5011897;28;20385;-85
2023/09/02 09:20:11;;;;;;;8.25;5.50;;;;;;;;;;5013278;28;20747;-84
2023/09/02 09:22:38;;;;;;;9.02;6.68;;;;;;;;;;5013800;28;20735;-85
2023/09/02 09:25:04;;;;;;;10.60;7.38;;;;;;;;;;5012204;28;20411;-85
2023/09/02 09:27:31;;;;;;;9.82;6.20;;;;;;;;;;5014087;28;20431;-85
2023/09/02 09:29:57;;;;;;;10.93;6.68;;;;;;;;;;5014443;28;20387;-86
2023/09/02 09:32:23;;;;;;;15.82;9.43;;;;;;;;;;5014037;28;20385;-85
2023/09/02 09:34:50;;;;;;;11.07;6.57;;;;;;;;;;5013905;28;20385;-84
2023/09/02 09:37:16;;;;;;;7.68;5.57;;;;;;;;;;5013874;28;20385;-85
2023/09/02 09:39:42;;;;;;;5.38;4.22;;;;;;;;;;5013696;28;20404;-84
2023/09/02 09:42:09;;;;;;;2.95;2.58;;;;;;;;;;5014070;28;20384;-85
2023/09/02 09:44:35;;;;;;;3.72;2.25;;;;;;;;;;5014322;28;20388;-85
2023/09/02 09:47:01;;;;;;;3.03;2.35;;;;;;;;;;5014936;28;20417;-84
2023/09/02 09:49:28;;;;;;;2.80;2.00;;;;;;;;;;5011398;28;21000;-85
2023/09/02 10:25:13;;;;;;;3.53;1.55;;;;;;;;;;5150310;27;20377;-83
2023/09/02 10:27:43;;;;;;;2.72;1.70;;;;;;;;;;5128968;28;20710;-83
2023/09/02 10:39:51;;;;;;;4.68;1.90;;;;;;;;;;5133684;27;20367;-83
2023/09/02 10:42:18;;;;;;;3.28;2.00;;;;;;;;;;5130800;28;20403;-84
2023/09/02 10:44:47;;;;;;;3.03;2.00;;;;;;;;;;5130994;28;20458;-84
2023/09/02 10:47:13;;;;;;;2.70;1.95;;;;;;;;;;5122294;28;20819;-84
2023/09/02 10:54:01;;;;;;;2.50;1.60;;;;;;;;;;5146150;27;20367;-83
2023/09/02 10:56:28;;;;;;;2.57;1.83;;;;;;;;;;5122872;28;20373;-84
2023/09/02 10:58:54;;;;;;;1.70;1.60;;;;;;;;;;5134793;28;20383;-84
2023/09/02 11:01:21;;;;;;;2.22;1.65;;;;;;;;;;5109440;28;20388;-85
2023/09/02 11:03:50;;;;;;;1.40;1.30;;;;;;;;;;5109703;28;20389;-84
2023/09/02 11:06:17;;;;;;;1.70;1.58;;;;;;;;;;5094678;28;20370;-85
2023/09/02 11:08:50;;;;;;;1.60;1.30;;;;;;;;;;5096211;28;20421;-84
2023/09/02 11:11:17;;;;;;;1.70;1.40;;;;;;;;;;5112036;28;20369;-85
2023/09/02 11:53:43;;;;;;;1.67;1.27;;;;;;;;;;5134298;27;20359;-84
2023/09/02 11:56:09;;;;;;;2.05;1.42;;;;;;;;;;5134544;28;20379;-84
2023/09/02 11:58:35;;;;;;;1.60;1.30;;;;;;;;;;5136350;28;20419;-84
2023/09/02 12:01:01;;;;;;;1.52;1.20;;;;;;;;;;5118947;28;20376;-85
2023/09/02 12:03:28;;;;;;;2.05;1.13;;;;;;;;;;5123528;28;20418;-84
2023/09/02 12:05:56;;;;;;;1.90;1.30;;;;;;;;;;5137237;28;20821;-84
2023/09/02 12:08:23;;;;;;;1.20;1.10;;;;;;;;;;5116838;28;20381;-85
2023/09/02 12:41:52;;;;;;;2.38;1.50;;;;;;;;;;5141061;27;20369;-85
2023/09/02 12:44:19;;;;;;;2.10;1.45;;;;;;;;;;5097774;28;20378;-84
2023/09/02 12:46:48;;;;;;;1.80;1.27;;;;;;;;;;5097688;28;20720;-85
2023/09/02 12:49:17;;;;;;;2.33;1.30;;;;;;;;;;5097417;28;20377;-85
2023/09/02 12:51:43;;;;;;;1.30;1.20;;;;;;;;;;5097313;28;20386;-85
2023/09/02 12:54:10;;;;;;;1.38;1.25;;;;;;;;;;5113932;28;20442;-84
2023/09/02 12:56:36;;;;;;;1.50;1.40;;;;;;;;;;5115206;28;20455;-84
2023/09/02 12:59:02;;;;;;;1.40;1.20;;;;;;;;;;5116073;28;20766;-84
2023/09/02 13:01:28;;;;;;;1.97;1.20;;;;;;;;;;5115859;28;20455;-85
2023/09/02 13:03:54;;;;;;;1.37;1.20;;;;;;;;;;5094527;28;20439;-84
2023/09/02 13:06:20;;;;;;;3.17;1.27;;;;;;;;;;5099000;28;20462;-84
2023/09/02 13:08:47;;;;;;;1.55;1.35;;;;;;;;;;5107708;28;20410;-85
2023/09/02 13:11:13;;;;;;;1.00;0.90;;;;;;;;;;5095281;28;20419;-85
2023/09/02 13:13:40;;;;;;;1.52;1.20;;;;;;;;;;5106860;28;20397;-84
2023/09/02 13:16:06;;;;;;;1.40;1.30;;;;;;;;;;5113928;28;20391;-85
2023/09/02 13:18:32;;;;;;;1.47;1.33;;;;;;;;;;5114781;28;20378;-85
2023/09/02 13:21:01;;;;;;;2.55;1.20;;;;;;;;;;5101126;27;20416;-85
2023/09/02 13:23:29;;;;;;;1.70;1.60;;;;;;;;;;5132985;28;20382;-85
2023/09/02 13:25:55;;;;;;;1.98;1.45;;;;;;;;;;5131382;28;20857;-85
2023/09/02 13:28:21;;;;;;;1.33;1.20;;;;;;;;;;5102501;28;20433;-85
2023/09/02 13:30:47;;;;;;;1.40;1.30;;;;;;;;;;5101958;28;20747;-84
2023/09/02 13:33:14;;;;;;;1.67;1.40;;;;;;;;;;5096949;28;20381;-84
2023/09/02 13:35:40;;;;;;;2.88;1.40;;;;;;;;;;5097712;28;20389;-84
2023/09/02 13:38:09;;;;;;;1.67;1.00;;;;;;;;;;5124819;28;20393;-84
2023/09/02 13:40:36;;;;;;;1.38;1.25;;;;;;;;;;5124933;28;20746;-85
2023/09/02 13:43:06;;;;;;;1.90;1.60;;;;;;;;;;5122162;28;20444;-85
2023/09/02 13:45:34;;;;;;;1.90;1.17;;;;;;;;;;5120452;28;20460;-84
2023/09/02 13:48:00;;;;;;;2.10;1.02;;;;;;;;;;5122251;28;20378;-85
2023/09/02 13:50:27;;;;;;;11.35;2.30;;;;;;;;;;5121173;28;20390;-84
2023/09/02 13:52:55;;;;;;;2.40;1.25;;;;;;;;;;5110325;28;20985;-84
2023/09/02 13:55:22;;;;;;;1.52;1.30;;;;;;;;;;5094371;28;20392;-84
2023/09/02 13:57:48;;;;;;;1.40;1.30;;;;;;;;;;5108157;28;20500;-84
2023/09/02 14:00:17;;;;;;;3.90;1.63;;;;;;;;;;5110208;28;20432;-84
2023/09/02 14:02:43;;;;;;;2.40;1.30;;;;;;;;;;5103578;28;20390;-85
2023/09/02 14:05:13;;;;;;;1.60;1.20;;;;;;;;;;5089792;28;20378;-85
2023/09/02 14:07:41;;;;;;;1.52;1.10;;;;;;;;;;5109788;28;20734;-85
2023/09/02 14:10:07;;;;;;;4.18;1.80;;;;;;;;;;5089272;28;20393;-85
2023/09/02 14:12:34;;;;;;;1.42;1.20;;;;;;;;;;5094705;28;20385;-85
2023/09/02 14:15:00;;;;;;;1.92;1.30;;;;;;;;;;5096238;28;20409;-85
2023/09/02 14:17:26;;;;;;;3.55;1.10;;;;;;;;;;5114506;28;20380;-85
2023/09/02 14:19:52;;;;;;;1.70;1.40;;;;;;;;;;5107726;28;20414;-84
2023/09/02 14:22:18;;;;;;;1.40;1.10;;;;;;;;;;5091913;28;20929;-84
2023/09/02 14:24:44;;;;;;;1.00;0.90;;;;;;;;;;5103597;28;20443;-84
2023/09/02 14:27:11;;;;;;;1.73;1.10;;;;;;;;;;5102225;28;20390;-85
2023/09/02 14:29:37;;;;;;;0.90;0.90;;;;;;;;;;5084723;28;20472;-84
2023/09/02 14:32:04;;;;;;;1.20;1.10;;;;;;;;;;5082897;28;20439;-85
2023/09/02 14:34:30;;;;;;;1.15;1.00;;;;;;;;;;5103220;28;20447;-84
2023/09/02 14:36:56;;;;;;;1.38;1.17;;;;;;;;;;5085366;28;20411;-84
2023/09/02 14:39:22;;;;;;;1.30;1.20;;;;;;;;;;5082738;28;20374;-85
2023/09/02 14:41:49;;;;;;;2.15;1.05;;;;;;;;;;5085249;28;20427;-84
2023/09/02 14:44:18;;;;;;;1.30;1.20;;;;;;;;;;5102927;28;20453;-84
2023/09/02 14:46:45;;;;;;;0.98;0.93;;;;;;;;;;5083920;28;20435;-84
2023/09/02 14:49:13;;;;;;;2.15;1.17;;;;;;;;;;5100837;28;20441;-84
2023/09/02 14:51:39;;;;;;;1.25;1.10;;;;;;;;;;5101295;28;20719;-85
2023/09/02 14:54:05;;;;;;;1.20;1.10;;;;;;;;;;5102344;28;20390;-84
2023/09/02 14:56:32;;;;;;;1.23;1.13;;;;;;;;;;5102484;28;20390;-84
2023/09/02 14:58:59;;;;;;;1.17;1.08;;;;;;;;;;5083879;28;20469;-84
2023/09/02 15:01:25;;;;;;;1.50;1.40;;;;;;;;;;5101735;28;20414;-84
2023/09/02 15:03:51;;;;;;;1.85;1.20;;;;;;;;;;5101271;28;20423;-85
2023/09/02 15:06:17;;;;;;;1.70;1.40;;;;;;;;;;5083973;28;20394;-84
2023/09/02 15:08:43;;;;;;;1.20;0.93;;;;;;;;;;5102823;28;20386;-84
2023/09/02 15:11:09;;;;;;;3.10;1.20;;;;;;;;;;5102925;28;20389;-84
2023/09/02 15:13:36;;;;;;;1.30;1.00;;;;;;;;;;5101378;28;20378;-84
2023/09/02 15:16:02;;;;;;;1.50;0.98;;;;;;;;;;5100684;28;20402;-84
2023/09/02 15:18:29;;;;;;;2.30;1.10;;;;;;;;;;5101160;28;20465;-84
2023/09/02 15:20:56;;;;;;;1.33;1.17;;;;;;;;;;5101971;28;20428;-83
2023/09/02 15:23:23;;;;;;;1.67;1.10;;;;;;;;;;5103231;28;20410;-84
2023/09/02 15:25:54;;;;;;;1.08;0.90;;;;;;;;;;5103284;28;20788;-84
2023/09/02 15:28:20;;;;;;;1.20;1.10;;;;;;;;;;5103102;28;20390;-84
2023/09/02 15:30:46;;;;;;;1.27;1.17;;;;;;;;;;5102167;28;20382;-84
2023/09/02 15:33:14;;;;;;;3.38;1.20;;;;;;;;;;5085164;28;20386;-84
2023/09/02 15:35:40;;;;;;;1.60;1.20;;;;;;;;;;5102758;28;20421;-83
2023/09/02 15:38:17;;;;;;;1.60;1.40;;;;;;;;;;5082768;28;20728;-84
2023/09/02 15:40:43;;;;;;;7.47;1.80;;;;;;;;;;5086128;28;20441;-83
2023/09/02 15:43:09;;;;;;;1.25;1.10;;;;;;;;;;5102430;28;20482;-84
2023/09/02 15:45:38;;;;;;;1.23;1.10;;;;;;;;;;5103338;28;20930;-84
2023/09/02 15:48:04;;;;;;;1.38;1.20;;;;;;;;;;5085932;28;20414;-83
2023/09/02 15:50:30;;;;;;;1.50;1.40;;;;;;;;;;5091757;28;20491;-83
2023/09/02 15:52:56;;;;;;;1.30;1.20;;;;;;;;;;5115238;28;20388;-83
2023/09/02 15:55:23;;;;;;;1.02;0.95;;;;;;;;;;5119632;28;20396;-83
2023/09/02 15:57:52;;;;;;;1.83;1.10;;;;;;;;;;5120272;28;20383;-83
2023/09/02 16:00:19;;;;;;;3.40;1.45;;;;;;;;;;5106668;28;20416;-84
2023/09/02 16:02:45;;;;;;;2.03;1.20;;;;;;;;;;5120587;28;20380;-84
2023/09/02 16:05:11;;;;;;;1.27;1.10;;;;;;;;;;5117323;28;20420;-83
2023/09/02 16:07:37;;;;;;;1.55;1.45;;;;;;;;;;5113363;28;20391;-83
2023/09/02 16:10:03;;;;;;;1.95;1.38;;;;;;;;;;5107950;28;20851;-81
2023/09/02 16:12:29;;;;;;;1.60;1.50;;;;;;;;;;5112306;28;20398;-83
2023/09/02 16:14:55;;;;;;;1.60;1.20;;;;;;;;;;5076079;28;20382;-84
2023/09/02 16:17:21;;;;;;;1.80;1.40;;;;;;;;;;5092252;28;20396;-84
2023/09/02 16:19:47;;;;;;;1.50;1.30;;;;;;;;;;5109782;28;20391;-84
2023/09/02 16:22:13;;;;;;;1.27;1.17;;;;;;;;;;5115182;28;20782;-84
2023/09/02 16:24:39;;;;;;;2.00;1.30;;;;;;;;;;5100999;28;20397;-84
2023/09/02 16:27:05;;;;;;;2.70;1.30;;;;;;;;;;5100829;28;20390;-85
2023/09/02 16:29:32;;;;;;;1.90;1.27;;;;;;;;;;5100206;28;20430;-84
2023/09/02 16:32:04;;;;;;;2.15;1.95;;;;;;;;;;5083014;28;20394;-84
2023/09/02 16:34:30;;;;;;;2.00;1.70;;;;;;;;;;5101816;28;20416;-84
2023/09/02 16:37:00;;;;;;;1.75;1.65;;;;;;;;;;5101650;28;20394;-84